• Join FlightAware (Why Join?)
  • Login
  • US Flag 
07:58AM EDT


 

Airport Tracker/Info


-or-


 

Live Flight TrackerFlight Track Log ✈ UAL5818 ✈ 22-Apr-2013 ✈ KORD - KDTW

Flight Track Log - Related Links

Times and Time Zones

All times are in EDT time to prevent confusion due to time zone crossing. See the UAL5818 flight status page for this flight to view local times or setup timezone preferences in your user account.

Time Position Orientation Groundspeed Altitude Reporting Facility
EDT Latitude Longitude Course Direction KTS MPH feet Rate Location/Type
12:05PM 41.9653 -87.8497 14° North 190 219 2,800  Level Chicago Center
12:05PM 41.9667 -87.8333 83° East 191 220 3,800 1,680 Climbing Chicago TRACON
12:06PM 41.9667 -87.7500 90° East 231 266 5,000 1,320 Climbing Chicago TRACON
12:07PM 41.9667 -87.6500 90° East 258 297 6,500 1,980 Climbing Chicago TRACON
12:08PM 42.3547 -87.7810 20° North  Level FlightAware Approximate
12:09PM 42.4502 -87.7433 North  Level FlightAware Approximate
12:09PM 42.0817 -87.6911 345° North 285 328 10,600  Level Chicago Center
12:10PM 42.5487 -87.7227 14° North  Level FlightAware Approximate
12:10PM 42.1772 -87.7211 347° North 307 353 13,900  Level Chicago Center
12:11PM 42.2669 -87.7186 North 321 369 15,600 1,320 Climbing Chicago Center
12:12PM 42.3653 -87.7008 North 355 409 16,700 1,080 Climbing Chicago Center
12:13PM 42.4703 -87.6803 North 380 437 17,900 1,320 Climbing Chicago Center
12:14PM 42.5867 -87.6503 11° North 392 451 19,500 1,500 Climbing Chicago Center
12:15PM 42.6531 -87.5317 53° Northeast 402 463 21,000 1,440 Climbing Chicago Center
12:16PM 42.6911 -87.3886 70° East 404 465 22,500 960 Climbing Chicago Center
12:17PM 42.7306 -87.2392 70° East 414 476 23,000 240 Climbing Chicago Center
12:18PM 42.7717 -87.0811 70° East 441 507 23,000  Level Chicago Center
12:19PM 42.8167 -86.9203 69° East 454 522 23,000  Level Chicago Center
12:20PM 42.8658 -86.7278 71° East 451 519 23,000  Level Chicago Center
12:21PM 42.9092 -86.5661 70° East 454 522 23,000  Level Chicago Center
12:22PM 42.9514 -86.4056 70° East 452 520 23,000  Level Chicago Center
12:23PM 42.9919 -86.2461 71° East 448 516 23,000  Level Chicago Center
12:24PM 43.0325 -86.0875 71° East 443 510 23,000  Level Chicago Center
12:26PM 43.0767 -85.9103 71° East 451 519 23,000  Level Chicago Center
12:27PM 43.1183 -85.7450 71° East 457 526 23,000  Level Chicago Center
12:28PM 43.1592 -85.5814 71° East 456 525 23,000  Level Chicago Center
12:29PM 43.1997 -85.4172 71° East 457 526 23,000  Level Chicago Center
12:30PM 43.2397 -85.2406 73° East 446 513 23,000  Level Cleveland Center
12:31PM 43.2211 -85.0736 99° East 440 506 23,000  Level Cleveland Center
12:32PM 43.1964 -84.9067 101° East 440 506 23,100 -360 Climbing Cleveland Center
12:33PM 43.2167 -84.7514 80° East 428 493 22,300 -900 Descending Cleveland Center
12:34PM 43.2403 -84.6133 77° East 402 463 21,400 -1,140 Descending Cleveland Center
12:35PM 43.2597 -84.4719 79° East 383 441 20,100 -1,380 Descending Cleveland Center
12:36PM 43.2664 -84.3269 86° East 378 435 18,700 -1,080 Descending Cleveland Center
12:37PM 43.2517 -84.2061 99° East 342 394 18,000 -900 Descending Cleveland Center
12:38PM 43.1892 -84.1314 139° Southeast 306 352 17,000 -1,020 Descending Cleveland Center
12:39PM 43.1208 -84.0564 141° Southeast 301 346 16,000 -1,140 Descending Cleveland Center
12:39PM 43.0561 -83.9817 140° Southeast 300 345 14,900 -1,080 Descending Cleveland Center
12:41PM 42.9936 -83.9131 141° Southeast 306 352 13,900 -1,200 Descending Cleveland Center
12:41PM 42.9269 -83.8356 140° Southeast 297 342 12,500 -1,020 Descending Cleveland Center
12:42PM 42.8644 -83.7672 141° Southeast 276 318 12,000 -300 Descending Cleveland Center
12:44PM 42.7969 -83.7128 149° Southeast 285 328 11,900 -660 Descending Cleveland Center
12:45PM 42.7253 -83.6697 156° South 280 322 10,700 -1,200 Descending Cleveland Center
12:45PM 42.6744 -83.6200 144° Southeast 253 291 9,700 -1,200 Descending FAA TRACON SMA TRACON (SMA)
12:46PM 42.6550 -83.6006 144° Southeast 249 287 9,300 -1,080 Descending FAA TRACON SMA TRACON (SMA)
12:46PM 42.6378 -83.5847 146° Southeast 244 281 9,000 -1,080 Descending FAA TRACON SMA TRACON (SMA)
12:46PM 42.6211 -83.5694 146° Southeast 238 274 8,600 -1,200 Descending FAA TRACON SMA TRACON (SMA)
12:47PM 42.6008 -83.5503 145° Southeast 235 270 8,200 -1,080 Descending FAA TRACON SMA TRACON (SMA)
12:47PM 42.5839 -83.5347 146° Southeast 236 272 7,900 -1,080 Descending FAA TRACON SMA TRACON (SMA)
12:47PM 42.5667 -83.5186 145° Southeast 241 277 7,500 -1,200 Descending FAA TRACON SMA TRACON (SMA)
12:48PM 42.5444 -83.4989 147° Southeast 245 282 7,100 -1,200 Descending FAA TRACON SMA TRACON (SMA)
12:48PM 42.5272 -83.4833 146° Southeast 240 276 6,700 -900 Descending FAA TRACON SMA TRACON (SMA)
12:48PM 42.5106 -83.4683 146° Southeast 228 262 6,500 -780 Descending FAA TRACON SMA TRACON (SMA)
12:49PM 42.4942 -83.4542 147° Southeast 225 259 6,200 -1,080 Descending FAA TRACON SMA TRACON (SMA)
12:49PM 42.4744 -83.4364 146° Southeast 220 253 5,800 -1,200 Descending FAA TRACON SMA TRACON (SMA)
12:49PM 42.4592 -83.4225 146° Southeast 213 245 5,400 -1,080 Descending FAA TRACON SMA TRACON (SMA)
12:50PM 42.4439 -83.4092 147° Southeast 213 245 5,100 -1,140 Descending FAA TRACON SMA TRACON (SMA)
12:50PM 42.4250 -83.3919 146° Southeast 213 245 4,600 -1,260 Descending FAA TRACON SMA TRACON (SMA)
12:50PM 42.4078 -83.3756 145° Southeast 216 249 4,200 -1,020 Descending FAA TRACON SMA TRACON (SMA)
12:51PM 42.3936 -83.3633 147° Southeast 222 255 4,000 -780 Descending FAA TRACON SMA TRACON (SMA)